»·PEaware :: N642SP KWJF-KEMT

N642SP :: KWJF-KEMT

FLIGHT INFORMATION

Flight Status: Arrived
Operator: Privately registered:
United States
More flights under this callsign
Pilot: Wes T. (5776)
Aircraft: CESSNA 172 SKYHAWK
(C172)
More flights by this aircraft type
Origin: KWJF Gen Fox
United States
Destination: KEMT El Monte
United States
More flights between these airports :: More routes between these airports
Route: +PMD ZIGGY5
File this flight plan on PilotEdge
Remarks:
Altitude:
(Current/Filed)
11,000ft
Speed:
(Current/Filed)
110kts
Departed: 20-Dec-15 12:27 PM
Arrived: 20-Dec-15 01:17 PM
Distance/Time
Traveled:
40nm/0:50
Distance/Time
To Go:
Arrived

Flight Plot

Page will automatically refresh every two minutes.


Map Options




Map Legend


Flown Route
Filed Route
Departure Airport
Arrival Airport
Navaid (VOR, NDB)
Fix

Horizontal Profiles

Position Reports

Time Latitude Longitude Heading Altitude Ground
Speed
20-Dec-15 12:07 34.739247 -118.214769 65 2351ft 0kts
20-Dec-15 12:08 34.739248 -118.214768 65 2351ft 0kts
20-Dec-15 12:09 34.739249 -118.214765 65 2351ft 0kts
20-Dec-15 12:10 34.739250 -118.214761 65 2351ft 0kts
20-Dec-15 12:11 34.739251 -118.214758 65 2351ft 0kts
20-Dec-15 12:12 34.739253 -118.214755 65 2351ft 0kts
20-Dec-15 12:13 34.739254 -118.214752 65 2351ft 0kts
20-Dec-15 12:14 34.739255 -118.214748 65 2351ft 0kts
20-Dec-15 12:15 34.739256 -118.214745 65 2351ft 0kts
20-Dec-15 12:16 34.739350 -118.214767 310 2351ft 3kts
20-Dec-15 12:17 34.740887 -118.215138 69 2351ft 5kts
20-Dec-15 12:18 34.742365 -118.210384 46 2351ft 8kts
20-Dec-15 12:19 34.742890 -118.207051 349 2351ft 5kts
20-Dec-15 12:20 34.742930 -118.207113 289 2351ft 0kts
20-Dec-15 12:21 34.743465 -118.207232 339 2351ft 0kts
20-Dec-15 12:22 34.743925 -118.207831 252 2351ft 10kts
20-Dec-15 12:23 34.739282 -118.224877 256 2892ft 63kts
20-Dec-15 12:24 34.727204 -118.213789 94 3493ft 94kts
20-Dec-15 12:25 34.715503 -118.182965 130 4124ft 106kts
20-Dec-15 12:26 34.696030 -118.154630 127 4830ft 109kts
20-Dec-15 12:27 34.677810 -118.127656 113 5660ft 92kts
20-Dec-15 12:28 34.660581 -118.102588 126 6273ft 100kts
20-Dec-15 12:29 34.640781 -118.076190 126 6882ft 105kts
20-Dec-15 12:30 34.624233 -118.048347 108 7486ft 103kts
20-Dec-15 12:31 34.609671 -118.015869 118 8007ft 114kts
20-Dec-15 12:32 34.593840 -117.981109 110 8521ft 119kts
20-Dec-15 12:33 34.577766 -117.945695 109 9029ft 119kts
20-Dec-15 12:34 34.561792 -117.910573 107 9522ft 118kts
20-Dec-15 12:35 34.546014 -117.875916 106 10015ft 116kts
20-Dec-15 12:36 34.530392 -117.841585 107 10507ft 115kts
20-Dec-15 12:37 34.514917 -117.807689 105 10984ft 115kts
20-Dec-15 12:38 34.497269 -117.768635 108 11002ft 143kts
20-Dec-15 12:39 34.477859 -117.726295 108 10991ft 140kts
20-Dec-15 12:40 34.458634 -117.685161 110 10992ft 139kts
20-Dec-15 12:41 34.439822 -117.644608 108 11025ft 136kts
20-Dec-15 12:42 34.421138 -117.603855 109 11026ft 140kts
20-Dec-15 12:43 34.401913 -117.562027 109 11026ft 142kts
20-Dec-15 12:44 34.382457 -117.520090 110 11023ft 143kts
20-Dec-15 12:45 34.362811 -117.477942 109 11021ft 143kts
20-Dec-15 12:46 34.342492 -117.433959 110 11021ft 146kts
20-Dec-15 12:47 34.322661 -117.391036 112 11017ft 146kts
20-Dec-15 12:48 34.302529 -117.347851 118 11014ft 148kts
20-Dec-15 12:49 34.269571 -117.344829 222 11002ft 110kts
20-Dec-15 12:50 34.238564 -117.366336 222 10177ft 139kts
20-Dec-15 12:51 34.204926 -117.393369 224 9275ft 146kts
20-Dec-15 12:52 34.172112 -117.420244 224 8328ft 133kts
20-Dec-15 12:53 34.143744 -117.441869 223 8046ft 114kts
20-Dec-15 12:54 34.116151 -117.462476 223 8042ft 117kts
20-Dec-15 12:55 34.088330 -117.483212 223 8039ft 117kts
20-Dec-15 12:56 34.065640 -117.510063 289 7454ft 109kts
20-Dec-15 12:57 34.073325 -117.544324 285 6564ft 106kts
20-Dec-15 12:58 34.073144 -117.579313 279 5661ft 103kts
20-Dec-15 12:59 34.075370 -117.613723 290 4759ft 102kts
20-Dec-15 13:00 34.077673 -117.650704 278 4040ft 113kts
20-Dec-15 13:01 34.078519 -117.685578 280 4051ft 99kts
20-Dec-15 13:02 34.079277 -117.719639 279 4054ft 103kts
20-Dec-15 13:03 34.080000 -117.755181 272 4312ft 114kts
20-Dec-15 13:04 34.080288 -117.790680 284 4183ft 95kts
20-Dec-15 13:05 34.081506 -117.822703 276 3906ft 102kts
20-Dec-15 13:06 34.082142 -117.857922 273 3700ft 104kts
20-Dec-15 13:07 34.082875 -117.892503 267 3702ft 101kts
20-Dec-15 13:08 34.083378 -117.925960 265 3564ft 103kts
20-Dec-15 13:09 34.082427 -117.959701 263 2766ft 97kts
20-Dec-15 13:10 34.080746 -117.992368 270 1771ft 96kts
20-Dec-15 13:11 34.089821 -118.010581 35 1162ft 81kts
20-Dec-15 13:12 34.100614 -118.023450 273 821ft 70kts
20-Dec-15 13:13 34.085985 -118.034841 204 299ft 39kts
20-Dec-15 13:14 34.080983 -118.037312 108 299ft 6kts
20-Dec-15 13:15 34.081688 -118.036571 25 299ft 8kts
20-Dec-15 13:16 34.084748 -118.034783 24 299ft 14kts
20-Dec-15 13:17 34.086048 -118.032924 114 299ft 8kts
20-Dec-15 13:18 34.085882 -118.032495 111 299ft 0kts

Navigation Log

Ident Type
Flight plan parsing failed, navigation log unavailable